Steptoe Valley North, Nevada Weather observations

Data are for 10 minute period ending at time listed.
 Day   Time   Solar   Ave.   Ave.  Ave.  Vector  Max.   Baro.   Total    
  of    of     Rad.   Air    Rel.  Wind   Wind   Wind  Press.  Precip.   
Year   Day            Temp.  Hum.  Speed  Dir.   Gust                    
2016   (PST)  Kw/m2    F      %     mph   deg.    mph    mb.     in.     
-------------------------------------------------------------------------
  42   14:00   0.42   41.5    48    1.7   132     2.5   828.0    0.00 
  42   14:10   0.31   40.8    58    1.4    42     2.5   827.9    0.00 
  42   14:20   0.35   41.2    56    1.7    26     4.3   827.8    0.00 
  42   14:30   0.32   40.3    61    2.0    24     4.5   827.9    0.00 
  42   14:40   0.36   41.5    56    1.7   359     2.5   828.0    0.00 
  42   14:50   0.47   42.4    54    2.2   341     3.0   827.9    0.00 
  42   15:00   0.32   42.2    49    2.2   338     3.1   828.0    0.00 
  42   15:10   0.23   40.7    56    3.3   325     4.0   828.0    0.00 
  42   15:20   0.19   40.3    56    2.4   329     3.0   828.0    0.00 
  42   15:30   0.14   39.9    55    2.2   321     2.7   828.0    0.00 
  42   15:40   0.13   40.3    54    1.3   311     2.3   828.1    0.00 
  42   15:50   0.13   40.5    58    1.4   312     1.8   828.2    0.00 
  42   16:00   0.14   40.5    60    0.4   317     1.4   828.4    0.00 
  42   16:10   0.12   40.5    60    0.0   318     0.7   828.4    0.00 
  42   16:20   0.10   40.7    62    0.1   318     0.7   828.5    0.00 
  42   16:30   0.07   39.1    66    0.2   323     1.0   828.6    0.00 
  42   16:40   0.05   35.7    72    1.2    92     2.2   828.6    0.00 
  42   16:50   0.03   35.8    72    1.5    73     2.6   828.6    0.00 
  42   17:00   0.02   36.1    69    1.4    74     2.1   828.6    0.00 
  42   17:10   0.01   35.6    69    1.3    73     2.3   828.7    0.00 
  42   17:20   0.00   35.5    68    0.6    72     1.3   828.7    0.00 
  42   17:30   0.00   35.6    65    0.4    72     0.9   828.7    0.00 
  42   17:40   0.00   33.7    72    0.7    70     1.5   828.7    0.00 
  42   17:50   0.00   32.4    76    2.0    97     3.0   828.7    0.00 
  42   18:00   0.00   30.2    82    1.1   118     2.3   828.8    0.00 
  42   18:10   0.00   29.6    84    0.2   123     1.3   828.8    0.00 
  42   18:20   0.00   29.5    86    1.3   123     2.5   828.9    0.00 
  42   18:30   0.00   29.8    86    2.4   240     3.2   829.0    0.00 
  42   18:40   0.00   30.7    81    0.5   292     1.8   829.1    0.00 
  42   18:50   0.00   31.0    78    0.7   282     2.9   829.2    0.00 
  42   19:00   0.00   32.0    77    0.6   278     2.3   829.2    0.00 
  42   19:10   0.00   31.7    77    0.1    14     1.1   829.2    0.00 
  42   19:20   0.00   30.7    78    0.2   310     2.0   829.2    0.00 
  42   19:30   0.00   29.8    79    0.9   212     1.8   829.3    0.00 
  42   19:40   0.00   29.5    82    0.4   199     3.5   829.3    0.00 
  42   19:50   0.00   26.9    82    2.9   139     3.4   829.5    0.00 
  42   20:00   0.00   26.7    85    2.1   186     2.6   829.5    0.00 
  42   20:10   0.00   27.2    81    1.5   192     3.4   829.5    0.00 
  42   20:20   0.00   25.6    82    2.1   169     3.4   829.5    0.00 
  42   20:30   0.00   24.8    85    0.4   167     2.0   829.4    0.00 
  42   20:40   0.00   25.4    88    0.9    85     3.4   829.3    0.00 
  42   20:50   0.00   24.6    88    1.8    76     3.5   829.3    0.00 
  42   21:00   0.00   22.8    87    2.6   333     3.9   829.3    0.00 
  42   21:10   0.00   22.1    89    2.6   322     3.4   829.3    0.00 
  42   21:20   0.00   21.6    89    1.2   291     3.1   829.3    0.00 
  42   21:30   0.00   21.0    90    0.7   290     1.5   829.3    0.00 
  42   21:40   0.00   21.4    92    1.3    52     1.9   829.3    0.00 
  42   21:50   0.00   22.2    92    0.9    71     2.3   829.3    0.00 
  42   22:00   0.00   21.4    91    0.0    71     0.8   829.3    0.00 
  42   22:10   0.00   21.0    92    0.5    71     1.8   829.3    0.00 
  42   22:20   0.00   19.0    91    2.3   117     4.4   829.3    0.00 
  42   22:30   0.00   20.1    92    0.0   118     0.4   829.3    0.00 
  42   22:40   0.00   20.3    92    0.3   112     3.0   829.3    0.00 
  42   22:50   0.00   17.9    90    2.6    10     3.4   829.3    0.00 
  42   23:00   0.00   17.6    92    1.4    16     3.0   829.3    0.00 
  42   23:10   0.00   19.2    93    0.1    16     1.2   829.4    0.00 
  42   23:20   0.00   18.0    91    1.0    40     2.6   829.4    0.00 
  42   23:30   0.00   16.2    91    2.8   160     3.8   829.4    0.00 
  42   23:40   0.00   15.8    92    2.0   159     3.4   829.3    0.00 
  42   23:50   0.00   17.5    91    2.3   208     5.4   829.1    0.00 
  43    0:00   0.00   14.7    91    1.5   264     4.0   829.1    0.00 
  43    0:10   0.00   14.9    91    1.1   160     3.7   828.9    0.00 
  43    0:20   0.00   15.6    91    0.8   158     1.9   828.8    0.00 
  43    0:30   0.00   15.3    90    1.2   174     3.4   828.9    0.00 
  43    0:40   0.00   14.4    90    1.3   320     2.9   828.9    0.00 
  43    0:50   0.00   15.0    91    0.6   318     1.8   828.9    0.00 
  43    1:00   0.00   15.3    92    0.7   318     2.0   828.8    0.00 
  43    1:10   0.00   15.8    91    0.4   321     1.5   828.8    0.00 
  43    1:20   0.00   15.6    91    2.0    82     3.6   828.8    0.00 
  43    1:30   0.00   16.5    92    1.4    82     2.3   828.8    0.00 
  43    1:40   0.00   15.5    90    0.7    84     2.3   828.8    0.00 
  43    1:50   0.00   14.4    90    1.0   114     3.1   828.9    0.00 
  43    2:00   0.00   13.0    89    2.0    13     3.4   828.9    0.00 
  43    2:10   0.00   14.1    91    1.0    39     4.0   828.8    0.00 
  43    2:20   0.00   14.9    91    3.4    93     4.3   828.7    0.00 
  43    2:30   0.00   13.8    90    3.6   101     4.4   828.5    0.00 
  43    2:40   0.00   13.8    90    3.7   101     4.7   828.5    0.00 
  43    2:50   0.00   14.6    92    3.4    99     4.4   828.5    0.00 
  43    3:00   0.00   14.9    90    1.4     5     3.4   828.5    0.00 
  43    3:10   0.00   12.5    88    1.0   282     3.4   828.5    0.00 
  43    3:20   0.00   10.8    88    2.0   264     3.9   828.5    0.00 
  43    3:30   0.00   10.0    89    1.4   288     3.2   828.5    0.00 
  43    3:40   0.00   10.8    89    1.2   289     1.7   828.4    0.00 
  43    3:50   0.00   10.1    88    0.6   340     1.7   828.4    0.00 
  43    4:00   0.00    9.5    88    1.4    77     3.7   828.4    0.00 
  43    4:10   0.00    9.2    88    3.2   162     4.2   828.4    0.00 
  43    4:20   0.00    9.8    89    1.8   146     3.7   828.2    0.00 
  43    4:30   0.00   11.2    90    3.2    89     4.5   828.2    0.00 
  43    4:40   0.00   12.9    91    3.0    83     3.9   828.2    0.00 
  43    4:50   0.00   13.5    90    3.3    88     4.3   828.4    0.00 
  43    5:00   0.00   13.8    90    1.9    86     4.5   828.6    0.00 
  43    5:10   0.00   11.2    88    3.0   121     4.2   828.7    0.00 
  43    5:20   0.00   10.4    88    0.9   128     2.7   828.7    0.00 
  43    5:30   0.00    9.1    88    1.7   247     3.8   828.7    0.00 
  43    5:40   0.00    8.9    88    0.6   251     1.8   828.7    0.00 
  43    5:50   0.00    7.9    87    1.6   327     3.4   828.8    0.00 
  43    6:00   0.00    6.9    87    1.4   346     2.0   828.8    0.00 
  43    6:10   0.00    7.6    88    2.6    57     3.4   828.8    0.00 
  43    6:20   0.00    9.2    89    2.5    70     3.4   828.7    0.00 
  43    6:30   0.00    9.4    88    2.1    78     2.9   828.8    0.00 
  43    6:40   0.01    9.4    88    1.4    78     3.0   828.9    0.00 
  43    6:50   0.01    8.7    87    2.6   318     6.3   828.9    0.00 
  43    7:00   0.04    7.8    88    0.7   306     2.6   828.9    0.00 
  43    7:10   0.08    9.8    89    0.2   278     1.4   828.9    0.00 
  43    7:20   0.10   10.6    89    0.7   278     1.3   828.9    0.00 
  43    7:30   0.13   14.1    91    0.0   278     0.9   828.9    0.00 
  43    7:40   0.15   13.3    88    2.0   294     3.7   829.0    0.00 
  43    7:50   0.17   14.8    90    0.9   309     4.0   829.1    0.00 
  43    8:00   0.21   14.6    89    2.6   306     4.5   829.3    0.00 
  43    8:10   0.23   17.2    91    0.8   214     2.8   829.4    0.00 
  43    8:20   0.25   17.3    89    2.8   134     3.7   829.4    0.00 
  43    8:30   0.29   16.3    89    2.2   118     3.1   829.4    0.00 
  43    8:40   0.31   19.9    90    1.2    92     3.0   829.6    0.00 
  43    8:50   0.34   21.4    89    0.7   318     2.8   829.7    0.00 
  43    9:00   0.37   26.6    88    0.0     0     0.0   829.7    0.00 
  43    9:10   0.42   25.9    81    0.0   310     0.5   829.7    0.00 
  43    9:20   0.46   27.0    82    1.0   313     2.8   829.6    0.00 
  43    9:30   0.49   26.3    81    2.3   329     3.1   829.6    0.00 
  43    9:40   0.51   27.6    81    1.6   325     2.6   829.6    0.00 
  43    9:50   0.54   30.8    80    0.9   323     2.0   829.5    0.00 
  43   10:00   0.56   35.3    73    0.1   321     1.3   829.5    0.00 
  43   10:10   0.58   37.9    55    0.0     0     0.0   829.3    0.00 
  43   10:20   0.60   38.5    49    0.1   320     0.9   829.2    0.00 
  43   10:30   0.61   38.5    53    0.3   320     1.6   829.2    0.00 
  43   10:40   0.63   42.1    45    0.1   320     0.9   829.1    0.00 
  43   10:50   0.62   42.5    46    0.8   329     2.8   829.0    0.00 
  43   11:00   0.63   38.9    57    1.8   339     2.6   829.0    0.00 
  43   11:10   0.65   39.3    54    0.3    56     1.4   828.8    0.00 
  43   11:20   0.66   41.7    46    0.0     0     0.0   828.6    0.00 
  43   11:30   0.66   43.6    46    1.0   130     2.1   828.4    0.00 
  43   11:40   0.67   43.0    48    2.1   143     3.1   828.2    0.00 
  43   11:50   0.67   45.8    42    0.8   177     2.9   828.1    0.00 
  43   12:00   0.66   44.1    42    0.5   215     2.5   827.9    0.00 
  43   12:10   0.65   41.8    47    2.4   239     3.2   827.7    0.00 
  43   12:20   0.62   41.2    46    2.6   262     3.6   827.6    0.00 
  43   12:30   0.64   42.0    42    1.7   266     2.6   827.5    0.00 
  43   12:40   0.62   44.1    41    1.3   325     2.7   827.4    0.00 
  43   12:50   0.60   44.5    43    0.6   359     2.3   827.3    0.00 
  43   13:00   0.58   43.9    50    1.6   116     2.9   827.1    0.00 
  43   13:10   0.58   40.9    58    1.9   114     2.9   827.0    0.00 
  43   13:20   0.58   44.4    48    0.3   117     1.8   826.9    0.00 
  43   13:30   0.56   48.8    37    0.0     0     0.0   826.8    0.00 
  43   13:40   0.51   47.6    36    0.2   117     1.4   826.6    0.00 
  43   13:50   0.53   43.6    47    1.5   117     2.1   826.5    0.00 

Return to Steptoe Valley North graphs page.


Western Regional Climate Center,wrcc@dri.edu